createdAt,value
2023-02-09T00:02:15.184Z,12.98
2023-02-09T00:04:41.931Z,13.10
2023-02-09T00:07:08.613Z,13.20
2023-02-09T00:09:35.223Z,13.15
2023-02-09T00:12:20.775Z,13.07
2023-02-09T00:14:47.452Z,12.98
2023-02-09T00:17:14.163Z,13.02
2023-02-09T00:19:40.856Z,12.93
2023-02-09T00:22:07.631Z,13.23
2023-02-09T00:24:34.313Z,12.93
2023-02-09T00:27:01.027Z,12.95
2023-02-09T00:29:28.030Z,13.77
2023-02-09T00:31:54.889Z,14.13
2023-02-09T00:34:21.600Z,14.10
2023-02-09T00:36:48.403Z,13.23
2023-02-09T00:39:15.222Z,12.57
2023-02-09T00:42:00.511Z,13.07
2023-02-09T00:44:27.160Z,12.93
2023-02-09T00:46:54.124Z,13.88
2023-02-09T00:49:21.127Z,13.18
2023-02-09T00:51:47.953Z,13.77
2023-02-09T00:54:14.822Z,13.30
2023-02-09T00:56:41.460Z,13.45
2023-02-09T00:59:08.125Z,13.27
2023-02-09T01:01:35.068Z,12.65
2023-02-09T01:04:02.019Z,13.38
2023-02-09T01:06:28.971Z,13.43
2023-02-09T01:08:55.635Z,13.00
2023-02-09T01:11:27.247Z,13.10
2023-02-09T01:13:56.490Z,13.00
2023-02-09T01:16:23.439Z,12.82
2023-02-09T01:18:50.132Z,12.23
2023-02-09T01:21:20.224Z,12.85
2023-02-09T01:23:47.753Z,12.75
2023-02-09T01:26:15.552Z,12.82
2023-02-09T01:28:42.513Z,12.52
2023-02-09T01:31:30.801Z,12.60
2023-02-09T01:33:59.441Z,12.50
2023-02-09T01:36:26.515Z,12.82
2023-02-09T01:38:58.972Z,12.70
2023-02-09T01:41:26.378Z,12.73
2023-02-09T01:44:05.500Z,12.65
2023-02-09T01:46:34.907Z,11.90
2023-02-09T01:49:16.708Z,12.70
2023-02-09T01:52:04.739Z,12.77
2023-02-09T01:54:39.932Z,13.45
2023-02-09T01:57:17.843Z,11.93
2023-02-09T01:59:47.680Z,12.80
2023-02-09T02:02:14.733Z,12.23
2023-02-09T02:04:42.772Z,13.63
2023-02-09T02:07:25.590Z,12.65
2023-02-09T02:09:52.603Z,12.55
2023-02-09T02:12:19.356Z,12.40
2023-02-09T02:14:46.306Z,12.32
2023-02-09T02:18:04.424Z,12.85
2023-02-09T02:21:35.497Z,12.15
2023-02-09T02:24:35.599Z,13.27
2023-02-09T02:27:27.605Z,12.90
2023-02-09T02:33:47.376Z,11.77
2023-02-09T02:36:43.427Z,11.77
2023-02-09T02:39:23.016Z,12.70
2023-02-09T02:42:18.340Z,12.23
2023-02-09T02:45:09.700Z,12.27
2023-02-09T02:47:38.416Z,12.55
2023-02-09T02:50:14.738Z,12.23
2023-02-09T02:52:44.435Z,11.65
2023-02-09T02:55:15.099Z,12.77
2023-02-09T02:57:44.964Z,11.98
2023-02-09T03:00:19.915Z,12.40
2023-02-09T03:02:50.680Z,11.65
2023-02-09T03:05:18.263Z,11.80
2023-02-09T03:07:45.300Z,12.10
2023-02-09T03:10:35.518Z,11.93
2023-02-09T03:13:33.522Z,11.75
2023-02-09T03:16:27.332Z,11.82
2023-02-09T03:19:08.696Z,11.70
2023-02-09T03:22:05.230Z,11.02
2023-02-09T03:24:37.673Z,11.23
2023-02-09T03:27:23.205Z,11.52
2023-02-09T03:29:54.587Z,11.38
2023-02-09T03:32:23.343Z,11.50
2023-02-09T03:34:50.329Z,12.50
2023-02-09T03:37:17.759Z,11.48
2023-02-09T03:39:44.520Z,12.13
2023-02-09T03:42:11.510Z,11.85
2023-02-09T03:44:38.131Z,11.63
2023-02-09T03:47:07.383Z,11.63
2023-02-09T03:49:39.499Z,12.00
2023-02-09T03:52:08.549Z,11.27
2023-02-09T03:54:35.847Z,12.02
2023-02-09T03:57:03.223Z,11.25
2023-02-09T03:59:30.650Z,11.30
2023-02-09T04:01:58.717Z,10.95
2023-02-09T04:04:26.065Z,12.15
2023-02-09T04:06:53.271Z,11.25
2023-02-09T04:09:20.391Z,12.38
2023-02-09T04:11:47.777Z,12.35
2023-02-09T04:14:15.151Z,11.25
2023-02-09T04:16:42.088Z,11.60
2023-02-09T04:19:09.861Z,11.90
2023-02-09T04:21:37.812Z,11.25
2023-02-09T04:24:05.719Z,11.52
2023-02-09T04:26:32.821Z,11.20
2023-02-09T04:28:59.822Z,11.63
2023-02-09T04:31:27.032Z,11.95
2023-02-09T04:33:54.050Z,11.63
2023-02-09T04:36:23.561Z,10.98
2023-02-09T04:38:50.830Z,11.32
2023-02-09T04:41:17.989Z,12.70
2023-02-09T04:43:46.383Z,12.13
2023-02-09T04:46:17.994Z,11.57
2023-02-09T04:48:45.335Z,11.30
2023-02-09T04:51:12.271Z,11.98
2023-02-09T04:53:39.215Z,12.43
2023-02-09T04:56:06.646Z,11.43
2023-02-09T04:58:52.161Z,12.23
2023-02-09T05:01:22.125Z,13.57
2023-02-09T05:03:49.070Z,13.15
2023-02-09T05:06:15.791Z,13.65
2023-02-09T05:08:42.554Z,14.73
2023-02-09T05:11:09.486Z,12.55
2023-02-09T05:13:36.334Z,11.75
2023-02-09T05:16:12.531Z,11.57
2023-02-09T05:18:39.410Z,12.30
2023-02-09T05:21:06.597Z,12.63
2023-02-09T05:23:33.468Z,11.98
2023-02-09T05:26:00.513Z,11.63
2023-02-09T05:28:27.360Z,12.68
2023-02-09T05:30:54.535Z,12.07
2023-02-09T05:33:22.357Z,11.73
2023-02-09T05:35:49.348Z,11.88
2023-02-09T05:38:16.718Z,12.02
2023-02-09T05:40:45.140Z,11.13
2023-02-09T05:43:12.590Z,11.48
2023-02-09T05:45:39.341Z,12.50
2023-02-09T05:48:06.692Z,11.75
2023-02-09T05:50:33.638Z,11.35
2023-02-09T05:53:00.409Z,11.90
2023-02-09T05:55:27.872Z,12.20
2023-02-09T05:57:54.623Z,11.65
2023-02-09T06:00:22.172Z,11.82
2023-02-09T06:02:49.089Z,11.77
2023-02-09T06:05:16.015Z,11.85
2023-02-09T06:07:43.062Z,11.63
2023-02-09T06:10:10.227Z,11.77
2023-02-09T06:12:37.083Z,12.00
2023-02-09T06:15:04.631Z,11.52
2023-02-09T06:17:31.356Z,11.65
2023-02-09T06:19:58.198Z,12.02
2023-02-09T06:22:24.963Z,12.63
2023-02-09T06:24:52.026Z,72.53
2023-02-09T06:27:18.967Z,26.67
2023-02-09T06:29:45.705Z,16.13
2023-02-09T06:32:12.609Z,12.77
2023-02-09T06:34:39.694Z,14.10
2023-02-09T06:37:06.406Z,12.57
2023-02-09T06:39:33.207Z,12.68
2023-02-09T06:42:00.111Z,13.38
2023-02-09T06:44:27.207Z,12.52
2023-02-09T06:46:54.113Z,12.23
2023-02-09T06:49:24.243Z,12.95
2023-02-09T06:51:51.675Z,12.05
2023-02-09T06:54:18.633Z,12.95
2023-02-09T06:56:45.356Z,13.02
2023-02-09T06:59:13.129Z,13.45
2023-02-09T07:01:47.549Z,12.93
2023-02-09T07:04:14.363Z,13.38
2023-02-09T07:06:41.444Z,13.90
2023-02-09T07:09:08.285Z,28.40
2023-02-09T07:11:35.185Z,19.58
2023-02-09T07:14:02.170Z,16.70
2023-02-09T07:16:29.034Z,16.92
2023-02-09T07:18:56.216Z,19.27
2023-02-09T07:21:23.048Z,19.17
2023-02-09T07:23:50.303Z,18.60
2023-02-09T07:26:18.595Z,19.42
2023-02-09T07:28:45.831Z,19.35
2023-02-09T07:31:14.269Z,19.27
2023-02-09T07:33:41.351Z,45.63
2023-02-09T07:36:10.637Z,113.45
2023-02-09T07:38:38.716Z,42.20
2023-02-09T07:41:07.532Z,40.00
2023-02-09T07:43:34.736Z,39.70
2023-02-09T07:46:05.208Z,42.67
2023-02-09T07:48:32.715Z,29.98
2023-02-09T07:51:00.259Z,23.02
2023-02-09T07:53:28.115Z,21.20
2023-02-09T07:55:55.302Z,19.95
2023-02-09T07:58:24.021Z,19.35
2023-02-09T08:00:52.155Z,20.08
2023-02-09T08:03:21.396Z,21.35
2023-02-09T08:05:53.890Z,20.40
2023-02-09T08:08:20.970Z,19.48
2023-02-09T08:10:48.094Z,18.67
2023-02-09T08:15:18.692Z,32.55
2023-02-09T08:17:45.639Z,36.10
2023-02-09T08:20:18.330Z,34.88
2023-02-09T08:22:48.256Z,37.65
2023-02-09T08:25:17.087Z,35.83
2023-02-09T08:27:44.461Z,28.77
2023-02-09T08:30:13.163Z,21.55
2023-02-09T08:32:40.144Z,18.85
2023-02-09T08:35:07.350Z,17.63
2023-02-09T08:37:34.559Z,18.80
2023-02-09T08:40:01.337Z,17.58
2023-02-09T08:42:29.037Z,16.63
2023-02-09T08:44:55.746Z,15.00
2023-02-09T08:47:23.067Z,13.82
2023-02-09T08:49:51.444Z,14.02
2023-02-09T08:52:18.978Z,15.23
2023-02-09T08:54:45.993Z,14.10
2023-02-09T08:57:12.965Z,14.80
2023-02-09T08:59:40.270Z,16.10
2023-02-09T09:02:07.052Z,17.45
2023-02-09T09:04:34.237Z,14.40
2023-02-09T09:07:00.983Z,13.50
2023-02-09T09:09:27.910Z,12.95
2023-02-09T09:11:54.665Z,13.23
2023-02-09T09:14:21.413Z,12.60
2023-02-09T09:16:48.360Z,12.15
2023-02-09T09:19:15.581Z,13.50
2023-02-09T09:21:42.359Z,13.73
2023-02-09T09:24:09.235Z,13.55
2023-02-09T09:26:36.219Z,14.23
2023-02-09T09:29:03.318Z,14.07
2023-02-09T09:31:31.309Z,15.05
2023-02-09T09:33:58.071Z,16.55
2023-02-09T09:36:25.110Z,33.22
2023-02-09T09:38:51.840Z,17.90
2023-02-09T09:41:29.470Z,15.80
2023-02-09T09:43:56.626Z,12.90
2023-02-09T09:46:33.754Z,21.80
2023-02-09T09:49:01.200Z,18.48
2023-02-09T09:51:39.438Z,14.25
2023-02-09T09:54:13.412Z,12.07
2023-02-09T09:56:41.846Z,13.02
2023-02-09T09:59:19.634Z,11.85
2023-02-09T10:01:48.044Z,11.13
2023-02-09T10:04:16.131Z,12.63
2023-02-09T10:06:46.259Z,11.15
2023-02-09T10:09:54.224Z,9.50
2023-02-09T10:12:51.528Z,10.57
2023-02-09T10:15:31.576Z,9.73
2023-02-09T10:17:59.199Z,10.63
2023-02-09T10:20:44.851Z,10.48
2023-02-09T10:23:39.023Z,12.52
2023-02-09T10:26:09.002Z,10.77
2023-02-09T10:28:45.541Z,9.60
2023-02-09T10:31:35.551Z,10.52
2023-02-09T10:34:13.459Z,10.40
2023-02-09T10:36:48.911Z,10.10
2023-02-09T10:39:19.706Z,10.20
2023-02-09T10:41:52.391Z,10.65
2023-02-09T10:44:26.326Z,10.18
2023-02-09T10:49:37.441Z,9.98
2023-02-09T10:52:19.570Z,10.30
2023-02-09T10:54:49.293Z,9.93
2023-02-09T10:57:29.035Z,9.80
2023-02-09T11:00:01.741Z,10.50
2023-02-09T11:02:35.386Z,10.73
2023-02-09T11:05:03.093Z,10.93
2023-02-09T11:07:34.540Z,10.43
2023-02-09T11:10:02.635Z,10.75
2023-02-09T11:12:31.157Z,10.25
2023-02-09T11:15:01.886Z,10.18
2023-02-09T11:17:40.308Z,9.88
2023-02-09T11:20:29.049Z,10.20
2023-02-09T11:23:31.006Z,10.15
2023-02-09T11:26:01.477Z,10.10
2023-02-09T11:28:52.780Z,10.13
2023-02-09T11:31:50.326Z,10.63
2023-02-09T11:34:35.844Z,10.07
2023-02-09T11:37:14.260Z,9.68
2023-02-09T11:40:05.050Z,9.07
2023-02-09T11:42:46.344Z,10.30
2023-02-09T11:45:30.030Z,10.05
2023-02-09T11:48:13.466Z,9.98
2023-02-09T11:50:59.431Z,10.13
2023-02-09T11:53:39.801Z,10.27
2023-02-09T11:56:09.473Z,10.68
2023-02-09T11:58:58.439Z,10.60
2023-02-09T12:02:00.424Z,11.98
2023-02-09T12:04:45.687Z,10.35
2023-02-09T12:07:20.445Z,10.32
2023-02-09T12:10:20.371Z,10.63
2023-02-09T12:13:15.689Z,9.40
2023-02-09T12:15:46.165Z,9.50
2023-02-09T12:18:16.031Z,9.07
2023-02-09T12:20:57.461Z,8.43
2023-02-09T12:23:43.637Z,8.32
2023-02-09T12:26:33.381Z,8.10
2023-02-09T12:29:29.345Z,9.80
2023-02-09T12:32:30.946Z,11.35
2023-02-09T12:35:22.999Z,8.10
2023-02-09T12:38:13.358Z,8.10
2023-02-09T12:40:40.350Z,7.93
2023-02-09T12:43:28.661Z,8.18
2023-02-09T12:46:33.269Z,8.88
2023-02-09T12:49:33.004Z,7.60
2023-02-09T12:52:19.974Z,8.23
2023-02-09T12:54:57.419Z,8.30
2023-02-09T12:57:49.856Z,8.88
2023-02-09T13:00:41.002Z,9.15
2023-02-09T13:03:13.317Z,9.23
2023-02-09T13:05:42.236Z,9.07
2023-02-09T13:08:18.924Z,8.23
2023-02-09T13:11:02.712Z,8.10
2023-02-09T13:13:51.741Z,8.33
2023-02-09T13:16:21.233Z,8.98
2023-02-09T13:19:12.185Z,8.23
2023-02-09T13:21:47.563Z,8.15
2023-02-09T13:24:22.781Z,8.27
2023-02-09T13:26:54.655Z,8.45
2023-02-09T13:29:26.637Z,9.15
2023-02-09T13:32:17.238Z,8.95
2023-02-09T13:35:25.635Z,8.68
2023-02-09T13:37:57.208Z,8.05
2023-02-09T13:40:29.618Z,8.25
2023-02-09T13:43:22.239Z,8.02
2023-02-09T13:45:50.930Z,8.60
2023-02-09T13:48:32.695Z,29.30
2023-02-09T13:51:01.902Z,10.20
2023-02-09T13:53:30.782Z,9.43
2023-02-09T13:56:00.925Z,9.35
2023-02-09T13:58:30.652Z,9.00
2023-02-09T14:01:00.258Z,8.40
2023-02-09T14:03:29.332Z,8.68
2023-02-09T14:06:15.386Z,10.05
2023-02-09T14:08:42.636Z,9.55
2023-02-09T14:11:47.514Z,9.77
2023-02-09T14:15:00.171Z,13.80
2023-02-09T14:17:32.446Z,14.95
2023-02-09T14:20:00.212Z,9.43
2023-02-09T14:22:33.334Z,9.82
2023-02-09T14:25:00.702Z,11.57
2023-02-09T14:27:28.677Z,11.13
2023-02-09T14:29:55.874Z,13.23
2023-02-09T14:32:37.005Z,10.68
2023-02-09T14:35:29.276Z,9.02
2023-02-09T14:38:01.585Z,10.23
2023-02-09T14:40:28.576Z,10.05
2023-02-09T14:43:25.166Z,12.23
2023-02-09T14:46:00.433Z,10.63
2023-02-09T14:48:29.092Z,11.45
2023-02-09T14:51:01.750Z,10.13
2023-02-09T14:53:31.512Z,9.98
2023-02-09T14:55:58.985Z,10.63
2023-02-09T14:58:27.053Z,9.18
2023-02-09T15:00:56.147Z,9.68
2023-02-09T15:03:22.877Z,10.98
2023-02-09T15:05:51.798Z,11.30
2023-02-09T15:08:22.169Z,12.13
2023-02-09T15:10:51.275Z,12.98
2023-02-09T15:13:18.081Z,11.40
2023-02-09T15:15:45.540Z,11.13
2023-02-09T15:18:20.658Z,11.63
2023-02-09T15:20:48.069Z,10.65
2023-02-09T15:23:15.007Z,10.43
2023-02-09T15:25:42.479Z,10.10
2023-02-09T15:28:30.292Z,11.30
2023-02-09T15:30:58.719Z,11.30
2023-02-09T15:33:26.377Z,11.40
2023-02-09T15:35:53.390Z,11.95
2023-02-09T15:38:20.516Z,12.52
2023-02-09T15:41:07.894Z,12.10
2023-02-09T15:43:53.798Z,11.45
2023-02-09T15:46:39.184Z,11.93
2023-02-09T15:49:06.072Z,12.13
2023-02-09T15:51:34.483Z,12.93
2023-02-09T15:54:03.333Z,12.90
2023-02-09T15:56:30.244Z,12.52
2023-02-09T15:59:03.872Z,11.30
2023-02-09T16:01:34.697Z,11.70
2023-02-09T16:04:13.406Z,10.93
2023-02-09T16:06:43.822Z,11.10
2023-02-09T16:09:17.769Z,11.98
2023-02-09T16:11:44.513Z,13.32
2023-02-09T16:14:17.087Z,12.43
2023-02-09T16:16:45.954Z,12.10
2023-02-09T16:19:13.574Z,12.07
2023-02-09T16:21:42.665Z,11.85
2023-02-09T16:24:17.830Z,12.85
2023-02-09T16:26:44.801Z,13.93
2023-02-09T16:29:11.737Z,13.30
2023-02-09T16:31:38.518Z,12.15
2023-02-09T16:34:05.199Z,13.23
2023-02-09T16:36:31.974Z,14.43
2023-02-09T16:38:58.570Z,14.48
2023-02-09T16:41:44.317Z,14.48
2023-02-09T16:44:30.632Z,13.98
2023-02-09T16:46:59.169Z,15.90
2023-02-09T16:49:43.267Z,16.52
2023-02-09T16:52:16.305Z,17.33
2023-02-09T16:54:48.557Z,15.45
2023-02-09T16:57:18.181Z,16.85
2023-02-09T16:59:45.089Z,24.02
2023-02-09T17:02:37.368Z,16.15
2023-02-09T17:05:17.234Z,15.95
2023-02-09T17:07:53.991Z,16.90
2023-02-09T17:10:25.449Z,17.38
2023-02-09T17:12:53.749Z,16.30
2023-02-09T17:15:29.389Z,15.82
2023-02-09T17:18:02.113Z,17.00
2023-02-09T17:20:34.554Z,16.92
2023-02-09T17:23:01.193Z,18.50
2023-02-09T17:25:27.952Z,25.48
2023-02-09T17:27:54.862Z,19.35
2023-02-09T17:30:22.533Z,15.32
2023-02-09T17:33:04.247Z,15.52
2023-02-09T17:36:03.546Z,17.27
2023-02-09T17:38:29.727Z,15.63
2023-02-09T17:40:57.845Z,14.60
2023-02-09T17:43:25.052Z,17.73
2023-02-09T17:45:52.488Z,19.80
2023-02-09T17:48:21.017Z,17.00
2023-02-09T17:50:49.692Z,17.85
2023-02-09T17:53:25.495Z,17.67
2023-02-09T17:55:54.373Z,16.30
2023-02-09T17:58:21.079Z,15.57
2023-02-09T18:00:48.227Z,16.92
2023-02-09T18:03:26.091Z,16.33
2023-02-09T18:05:55.938Z,15.70
2023-02-09T18:08:23.026Z,16.63
2023-02-09T18:10:49.943Z,17.02
2023-02-09T18:13:19.243Z,16.48
2023-02-09T18:15:48.992Z,15.82
2023-02-09T18:18:15.829Z,17.42
2023-02-09T18:20:42.792Z,16.52
2023-02-09T18:23:14.264Z,14.88
2023-02-09T18:25:41.509Z,15.25
2023-02-09T18:28:08.334Z,15.25
2023-02-09T18:30:39.403Z,15.15
2023-02-09T18:33:07.766Z,15.38
2023-02-09T18:35:38.415Z,15.40
2023-02-09T18:38:07.180Z,16.48
2023-02-09T18:40:34.270Z,15.60
2023-02-09T18:43:05.452Z,15.73
2023-02-09T18:45:32.998Z,16.63
2023-02-09T18:48:00.008Z,15.63
2023-02-09T18:50:29.448Z,15.40
2023-02-09T18:52:58.458Z,14.93
2023-02-09T18:55:28.177Z,14.85
2023-02-09T18:57:55.918Z,15.32
2023-02-09T19:00:23.431Z,15.65
2023-02-09T19:02:50.697Z,17.20
2023-02-09T19:05:19.091Z,18.80
2023-02-09T19:07:47.604Z,17.48
2023-02-09T19:10:18.068Z,17.75
2023-02-09T19:12:46.010Z,21.95
2023-02-09T19:15:14.125Z,20.95
2023-02-09T19:17:41.761Z,20.45
2023-02-09T19:20:12.985Z,21.05
2023-02-09T19:22:39.677Z,18.75
2023-02-09T19:25:06.960Z,18.50
2023-02-09T19:27:37.749Z,19.88
2023-02-09T19:30:05.036Z,19.17
2023-02-09T19:32:31.673Z,19.02
2023-02-09T19:34:58.419Z,19.35
2023-02-09T19:37:25.145Z,19.60
2023-02-09T19:40:04.172Z,19.65
2023-02-09T19:42:31.896Z,18.85
2023-02-09T19:44:58.775Z,18.45
2023-02-09T19:47:28.386Z,19.20
2023-02-09T19:49:56.426Z,19.02
2023-02-09T19:52:23.664Z,19.83
2023-02-09T19:54:50.842Z,19.10
2023-02-09T19:57:18.948Z,20.88
2023-02-09T19:59:45.674Z,20.65
2023-02-09T20:02:13.809Z,20.40
2023-02-09T20:04:42.831Z,18.73
2023-02-09T20:07:10.324Z,19.80
2023-02-09T20:09:37.698Z,19.63
2023-02-09T20:12:04.671Z,19.70
2023-02-09T20:14:33.469Z,20.98
2023-02-09T20:17:00.469Z,21.67
2023-02-09T20:19:27.275Z,20.65
2023-02-09T20:21:53.892Z,20.27
2023-02-09T20:24:20.619Z,20.55
2023-02-09T20:26:47.302Z,20.92
2023-02-09T20:29:14.113Z,20.20
2023-02-09T20:31:42.003Z,20.30
2023-02-09T20:34:13.316Z,20.15
2023-02-09T20:36:41.417Z,20.30
2023-02-09T20:39:16.213Z,20.55
2023-02-09T20:42:05.466Z,19.77
2023-02-09T20:44:51.882Z,18.83
2023-02-09T20:47:19.210Z,18.85
2023-02-09T20:49:45.993Z,20.80
2023-02-09T20:52:13.144Z,21.33
2023-02-09T20:54:40.177Z,19.25
2023-02-09T20:57:07.154Z,20.17
2023-02-09T20:59:34.890Z,21.15
2023-02-09T21:02:01.810Z,22.38
2023-02-09T21:04:30.412Z,22.25
2023-02-09T21:06:58.234Z,23.17
2023-02-09T21:09:28.574Z,24.02
2023-02-09T21:11:56.355Z,23.15
2023-02-09T21:14:32.328Z,22.10
2023-02-09T21:16:59.568Z,23.25
2023-02-09T21:19:26.383Z,22.48
2023-02-09T21:21:53.301Z,23.13
2023-02-09T21:24:20.325Z,21.85
2023-02-09T21:26:47.219Z,21.45
2023-02-09T21:29:14.819Z,21.52
2023-02-09T21:31:41.618Z,21.65
2023-02-09T21:34:08.401Z,23.20
2023-02-09T21:36:35.847Z,21.92
2023-02-09T21:39:03.460Z,21.48
2023-02-09T21:41:49.250Z,20.88
2023-02-09T21:44:16.005Z,21.48
2023-02-09T21:46:42.849Z,20.05
2023-02-09T21:49:11.684Z,19.85
2023-02-09T21:51:38.514Z,19.50
2023-02-09T21:54:07.131Z,19.15
2023-02-09T21:56:33.811Z,19.00
2023-02-09T21:59:00.419Z,19.90
2023-02-09T22:01:27.171Z,19.05
2023-02-09T22:03:57.417Z,19.58
2023-02-09T22:06:25.404Z,18.92
2023-02-09T22:08:52.766Z,18.75
2023-02-09T22:11:19.514Z,18.40
2023-02-09T22:13:46.125Z,18.48
2023-02-09T22:16:18.596Z,19.05
2023-02-09T22:18:45.459Z,18.48
2023-02-09T22:21:12.222Z,18.73
2023-02-09T22:23:38.920Z,19.13
2023-02-09T22:26:06.662Z,20.10
2023-02-09T22:28:36.403Z,18.00
2023-02-09T22:31:08.369Z,19.10
2023-02-09T22:33:35.628Z,18.92
2023-02-09T22:36:12.511Z,19.65
2023-02-09T22:38:39.373Z,18.80
2023-02-09T22:41:21.663Z,20.52
2023-02-09T22:43:59.973Z,20.80
2023-02-09T22:46:38.186Z,20.13
2023-02-09T22:49:08.195Z,18.42
2023-02-09T22:51:35.731Z,19.42
2023-02-09T22:54:03.439Z,17.52
2023-02-09T22:56:31.030Z,18.50
2023-02-09T22:58:58.948Z,18.05
2023-02-09T23:01:26.127Z,18.17
2023-02-09T23:03:53.187Z,18.05
2023-02-09T23:06:23.538Z,19.30
2023-02-09T23:08:56.935Z,18.30
2023-02-09T23:11:24.419Z,19.20
2023-02-09T23:14:03.795Z,19.55
2023-02-09T23:16:35.095Z,19.58
2023-02-09T23:19:07.556Z,20.30
2023-02-09T23:21:37.293Z,21.10
2023-02-09T23:24:04.608Z,19.35
2023-02-09T23:26:31.563Z,18.92
2023-02-09T23:29:00.455Z,18.80
2023-02-09T23:31:27.999Z,18.65
2023-02-09T23:33:55.168Z,20.02
2023-02-09T23:36:24.002Z,20.15
2023-02-09T23:38:55.759Z,19.30
2023-02-09T23:41:23.123Z,18.98
2023-02-09T23:43:50.664Z,20.48
2023-02-09T23:46:19.778Z,20.70
2023-02-09T23:48:46.557Z,19.80
2023-02-09T23:51:18.937Z,19.40
2023-02-09T23:53:46.603Z,19.55
2023-02-09T23:56:14.188Z,20.38
2023-02-09T23:58:44.194Z,19.40
